sensor_id;sensor_type;location;lat;lon;timestamp;P1;durP1;ratioP1;P2;durP2;ratioP2
18917;SDS011;9591;52.742;13.650;2023-11-21T00:00:25;42.50;;;14.20;;
18917;SDS011;9591;52.742;13.650;2023-11-21T00:03:33;43.50;;;14.30;;
18917;SDS011;9591;52.742;13.650;2023-11-21T00:06:47;53.10;;;14.73;;
18917;SDS011;9591;52.742;13.650;2023-11-21T00:09:57;50.13;;;15.10;;
18917;SDS011;9591;52.742;13.650;2023-11-21T00:12:57;46.77;;;15.13;;
18917;SDS011;9591;52.742;13.650;2023-11-21T00:16:02;44.93;;;15.23;;
18917;SDS011;9591;52.742;13.650;2023-11-21T00:19:08;50.87;;;16.70;;
18917;SDS011;9591;52.742;13.650;2023-11-21T00:22:34;54.20;;;15.90;;
18917;SDS011;9591;52.742;13.650;2023-11-21T00:25:29;58.30;;;18.03;;
18917;SDS011;9591;52.742;13.650;2023-11-21T00:28:34;58.07;;;17.57;;
18917;SDS011;9591;52.742;13.650;2023-11-21T00:31:40;71.00;;;18.83;;
18917;SDS011;9591;52.742;13.650;2023-11-21T00:34:34;67.10;;;19.40;;
18917;SDS011;9591;52.742;13.650;2023-11-21T00:37:27;74.47;;;18.83;;
18917;SDS011;9591;52.742;13.650;2023-11-21T00:40:41;59.13;;;17.97;;
18917;SDS011;9591;52.742;13.650;2023-11-21T00:43:54;64.17;;;18.17;;
18917;SDS011;9591;52.742;13.650;2023-11-21T00:46:58;59.20;;;15.43;;
18917;SDS011;9591;52.742;13.650;2023-11-21T00:50:01;54.20;;;16.43;;
18917;SDS011;9591;52.742;13.650;2023-11-21T00:52:56;47.63;;;13.43;;
18917;SDS011;9591;52.742;13.650;2023-11-21T00:55:49;50.63;;;14.23;;
18917;SDS011;9591;52.742;13.650;2023-11-21T00:58:53;48.73;;;13.97;;
18917;SDS011;9591;52.742;13.650;2023-11-21T01:02:27;42.53;;;12.47;;
18917;SDS011;9591;52.742;13.650;2023-11-21T01:05:35;37.10;;;11.90;;
18917;SDS011;9591;52.742;13.650;2023-11-21T01:08:27;42.53;;;11.43;;
18917;SDS011;9591;52.742;13.650;2023-11-21T01:11:30;31.60;;;10.23;;
18917;SDS011;9591;52.742;13.650;2023-11-21T01:14:40;36.70;;;10.53;;
18917;SDS011;9591;52.742;13.650;2023-11-21T01:17:46;35.20;;;10.53;;
18917;SDS011;9591;52.742;13.650;2023-11-21T01:20:40;27.40;;;9.57;;
18917;SDS011;9591;52.742;13.650;2023-11-21T01:23:38;32.17;;;10.63;;
18917;SDS011;9591;52.742;13.650;2023-11-21T01:26:35;31.03;;;9.43;;
18917;SDS011;9591;52.742;13.650;2023-11-21T01:29:23;31.03;;;9.80;;
18917;SDS011;9591;52.742;13.650;2023-11-21T01:32:15;25.97;;;8.33;;
18917;SDS011;9591;52.742;13.650;2023-11-21T01:35:09;27.83;;;9.00;;
18917;SDS011;9591;52.742;13.650;2023-11-21T01:37:58;19.03;;;7.63;;
18917;SDS011;9591;52.742;13.650;2023-11-21T01:40:48;22.20;;;6.97;;
18917;SDS011;9591;52.742;13.650;2023-11-21T01:43:37;18.97;;;7.57;;
18917;SDS011;9591;52.742;13.650;2023-11-21T01:46:27;18.30;;;7.90;;
18917;SDS011;9591;52.742;13.650;2023-11-21T01:49:23;20.00;;;7.93;;
18917;SDS011;9591;52.742;13.650;2023-11-21T01:52:12;14.10;;;6.90;;
18917;SDS011;9591;52.742;13.650;2023-11-21T01:55:03;14.07;;;6.67;;
18917;SDS011;9591;52.742;13.650;2023-11-21T01:57:54;11.97;;;6.70;;
18917;SDS011;9591;52.742;13.650;2023-11-21T02:00:42;16.43;;;7.53;;
18917;SDS011;9591;52.742;13.650;2023-11-21T02:03:35;14.83;;;6.87;;
18917;SDS011;9591;52.742;13.650;2023-11-21T02:06:26;12.30;;;6.50;;
18917;SDS011;9591;52.742;13.650;2023-11-21T02:09:22;18.47;;;7.33;;
18917;SDS011;9591;52.742;13.650;2023-11-21T02:12:12;12.60;;;6.33;;
18917;SDS011;9591;52.742;13.650;2023-11-21T02:15:00;13.37;;;6.63;;
18917;SDS011;9591;52.742;13.650;2023-11-21T02:17:48;16.13;;;6.40;;
18917;SDS011;9591;52.742;13.650;2023-11-21T02:20:40;12.27;;;6.70;;
18917;SDS011;9591;52.742;13.650;2023-11-21T02:23:30;12.47;;;6.63;;
18917;SDS011;9591;52.742;13.650;2023-11-21T02:26:26;13.80;;;7.00;;
18917;SDS011;9591;52.742;13.650;2023-11-21T02:29:16;15.97;;;6.87;;
18917;SDS011;9591;52.742;13.650;2023-11-21T02:32:07;16.20;;;6.63;;
18917;SDS011;9591;52.742;13.650;2023-11-21T02:34:58;12.73;;;5.63;;
18917;SDS011;9591;52.742;13.650;2023-11-21T02:37:54;12.87;;;6.10;;
18917;SDS011;9591;52.742;13.650;2023-11-21T02:40:46;12.23;;;6.20;;
18917;SDS011;9591;52.742;13.650;2023-11-21T02:43:38;12.73;;;6.07;;
18917;SDS011;9591;52.742;13.650;2023-11-21T02:46:25;10.57;;;5.67;;
18917;SDS011;9591;52.742;13.650;2023-11-21T02:49:12;11.23;;;6.23;;
18917;SDS011;9591;52.742;13.650;2023-11-21T02:51:59;14.40;;;6.53;;
18917;SDS011;9591;52.742;13.650;2023-11-21T02:54:49;15.17;;;6.40;;
18917;SDS011;9591;52.742;13.650;2023-11-21T02:57:38;9.57;;;6.30;;
18917;SDS011;9591;52.742;13.650;2023-11-21T03:00:26;9.67;;;5.63;;
18917;SDS011;9591;52.742;13.650;2023-11-21T03:03:16;16.80;;;6.70;;
18917;SDS011;9591;52.742;13.650;2023-11-21T03:06:05;10.77;;;5.87;;
18917;SDS011;9591;52.742;13.650;2023-11-21T03:08:56;16.17;;;7.00;;
18917;SDS011;9591;52.742;13.650;2023-11-21T03:11:43;12.90;;;5.47;;
18917;SDS011;9591;52.742;13.650;2023-11-21T03:14:39;9.00;;;4.60;;
18917;SDS011;9591;52.742;13.650;2023-11-21T03:17:28;9.30;;;5.27;;
18917;SDS011;9591;52.742;13.650;2023-11-21T03:23:35;8.17;;;4.50;;
18917;SDS011;9591;52.742;13.650;2023-11-21T03:26:25;10.97;;;5.30;;
18917;SDS011;9591;52.742;13.650;2023-11-21T03:29:15;8.67;;;4.57;;
18917;SDS011;9591;52.742;13.650;2023-11-21T03:32:09;9.20;;;4.77;;
18917;SDS011;9591;52.742;13.650;2023-11-21T03:34:58;10.10;;;4.60;;
18917;SDS011;9591;52.742;13.650;2023-11-21T03:37:48;6.17;;;4.20;;
18917;SDS011;9591;52.742;13.650;2023-11-21T03:40:35;7.37;;;4.27;;
18917;SDS011;9591;52.742;13.650;2023-11-21T03:43:25;6.83;;;3.97;;
18917;SDS011;9591;52.742;13.650;2023-11-21T03:46:12;9.50;;;5.20;;
18917;SDS011;9591;52.742;13.650;2023-11-21T03:49:06;9.30;;;4.53;;
18917;SDS011;9591;52.742;13.650;2023-11-21T03:51:53;9.20;;;4.37;;
18917;SDS011;9591;52.742;13.650;2023-11-21T03:54:41;8.80;;;5.17;;
18917;SDS011;9591;52.742;13.650;2023-11-21T03:57:32;12.53;;;4.57;;
18917;SDS011;9591;52.742;13.650;2023-11-21T04:00:27;6.93;;;4.30;;
18917;SDS011;9591;52.742;13.650;2023-11-21T04:03:14;8.07;;;4.67;;
18917;SDS011;9591;52.742;13.650;2023-11-21T04:06:17;7.60;;;4.67;;
18917;SDS011;9591;52.742;13.650;2023-11-21T04:09:05;8.40;;;4.43;;
18917;SDS011;9591;52.742;13.650;2023-11-21T04:11:53;6.93;;;4.03;;
18917;SDS011;9591;52.742;13.650;2023-11-21T04:14:41;11.63;;;4.80;;
18917;SDS011;9591;52.742;13.650;2023-11-21T04:17:32;12.60;;;4.43;;
18917;SDS011;9591;52.742;13.650;2023-11-21T04:20:22;10.40;;;4.40;;
18917;SDS011;9591;52.742;13.650;2023-11-21T04:23:13;9.00;;;4.10;;
18917;SDS011;9591;52.742;13.650;2023-11-21T04:26:01;8.47;;;3.93;;
18917;SDS011;9591;52.742;13.650;2023-11-21T04:28:50;9.43;;;4.13;;
18917;SDS011;9591;52.742;13.650;2023-11-21T04:31:39;6.63;;;3.83;;
18917;SDS011;9591;52.742;13.650;2023-11-21T04:34:28;6.83;;;3.57;;
18917;SDS011;9591;52.742;13.650;2023-11-21T04:37:17;6.40;;;3.90;;
18917;SDS011;9591;52.742;13.650;2023-11-21T04:40:13;6.50;;;3.87;;
18917;SDS011;9591;52.742;13.650;2023-11-21T04:43:01;5.97;;;3.20;;
18917;SDS011;9591;52.742;13.650;2023-11-21T04:45:50;8.60;;;4.20;;
18917;SDS011;9591;52.742;13.650;2023-11-21T04:48:39;7.97;;;3.77;;
18917;SDS011;9591;52.742;13.650;2023-11-21T04:51:43;5.30;;;3.73;;
18917;SDS011;9591;52.742;13.650;2023-11-21T04:54:30;6.90;;;4.13;;
18917;SDS011;9591;52.742;13.650;2023-11-21T04:57:23;6.67;;;3.77;;
18917;SDS011;9591;52.742;13.650;2023-11-21T05:00:11;8.63;;;3.83;;
18917;SDS011;9591;52.742;13.650;2023-11-21T05:03:04;6.30;;;3.00;;
18917;SDS011;9591;52.742;13.650;2023-11-21T05:05:56;7.97;;;3.90;;
18917;SDS011;9591;52.742;13.650;2023-11-21T05:08:48;9.03;;;4.43;;
18917;SDS011;9591;52.742;13.650;2023-11-21T05:11:35;6.73;;;3.80;;
18917;SDS011;9591;52.742;13.650;2023-11-21T05:14:28;6.43;;;3.67;;
18917;SDS011;9591;52.742;13.650;2023-11-21T05:17:15;5.97;;;3.57;;
18917;SDS011;9591;52.742;13.650;2023-11-21T05:20:07;6.67;;;4.03;;
18917;SDS011;9591;52.742;13.650;2023-11-21T05:22:56;7.67;;;3.67;;
18917;SDS011;9591;52.742;13.650;2023-11-21T05:25:46;8.97;;;3.23;;
18917;SDS011;9591;52.742;13.650;2023-11-21T05:28:33;9.00;;;4.03;;
18917;SDS011;9591;52.742;13.650;2023-11-21T05:31:24;7.00;;;3.50;;
18917;SDS011;9591;52.742;13.650;2023-11-21T05:34:15;5.60;;;3.60;;
18917;SDS011;9591;52.742;13.650;2023-11-21T05:37:04;8.83;;;4.23;;
18917;SDS011;9591;52.742;13.650;2023-11-21T05:39:58;8.63;;;3.80;;
18917;SDS011;9591;52.742;13.650;2023-11-21T05:42:55;4.90;;;3.60;;
18917;SDS011;9591;52.742;13.650;2023-11-21T05:45:43;7.60;;;3.90;;
18917;SDS011;9591;52.742;13.650;2023-11-21T05:48:31;7.57;;;4.20;;
18917;SDS011;9591;52.742;13.650;2023-11-21T05:51:18;5.83;;;3.87;;
18917;SDS011;9591;52.742;13.650;2023-11-21T05:57:25;3.70;;;3.03;;
18917;SDS011;9591;52.742;13.650;2023-11-21T06:00:15;4.93;;;2.97;;
18917;SDS011;9591;52.742;13.650;2023-11-21T06:03:11;7.47;;;4.50;;
18917;SDS011;9591;52.742;13.650;2023-11-21T06:09:17;5.57;;;3.87;;
18917;SDS011;9591;52.742;13.650;2023-11-21T06:12:06;6.80;;;3.93;;
18917;SDS011;9591;52.742;13.650;2023-11-21T06:14:56;6.60;;;4.37;;
18917;SDS011;9591;52.742;13.650;2023-11-21T06:17:48;6.17;;;4.40;;
18917;SDS011;9591;52.742;13.650;2023-11-21T06:20:49;7.20;;;3.63;;
18917;SDS011;9591;52.742;13.650;2023-11-21T06:23:43;4.77;;;3.43;;
18917;SDS011;9591;52.742;13.650;2023-11-21T06:26:30;4.83;;;3.20;;
18917;SDS011;9591;52.742;13.650;2023-11-21T06:29:23;4.10;;;3.63;;
18917;SDS011;9591;52.742;13.650;2023-11-21T06:32:12;6.57;;;4.03;;
18917;SDS011;9591;52.742;13.650;2023-11-21T06:35:01;6.80;;;4.00;;
18917;SDS011;9591;52.742;13.650;2023-11-21T06:37:50;10.33;;;4.43;;
18917;SDS011;9591;52.742;13.650;2023-11-21T06:40:40;6.77;;;4.20;;
18917;SDS011;9591;52.742;13.650;2023-11-21T06:43:27;5.57;;;3.60;;
18917;SDS011;9591;52.742;13.650;2023-11-21T06:49:30;7.80;;;4.17;;
18917;SDS011;9591;52.742;13.650;2023-11-21T06:53:21;6.60;;;3.90;;
18917;SDS011;9591;52.742;13.650;2023-11-21T06:56:17;5.77;;;4.03;;
18917;SDS011;9591;52.742;13.650;2023-11-21T06:59:09;5.80;;;3.60;;
18917;SDS011;9591;52.742;13.650;2023-11-21T07:01:59;8.97;;;4.50;;
18917;SDS011;9591;52.742;13.650;2023-11-21T07:04:49;9.90;;;4.67;;
18917;SDS011;9591;52.742;13.650;2023-11-21T07:07:50;9.83;;;4.63;;
18917;SDS011;9591;52.742;13.650;2023-11-21T07:10:40;10.87;;;4.93;;
18917;SDS011;9591;52.742;13.650;2023-11-21T07:13:29;9.30;;;4.87;;
18917;SDS011;9591;52.742;13.650;2023-11-21T07:16:21;11.77;;;4.97;;
18917;SDS011;9591;52.742;13.650;2023-11-21T07:19:09;6.37;;;4.33;;
18917;SDS011;9591;52.742;13.650;2023-11-21T07:21:58;9.07;;;5.00;;
18917;SDS011;9591;52.742;13.650;2023-11-21T07:24:49;11.17;;;4.93;;
18917;SDS011;9591;52.742;13.650;2023-11-21T07:27:39;10.07;;;4.80;;
18917;SDS011;9591;52.742;13.650;2023-11-21T07:30:35;13.57;;;5.07;;
18917;SDS011;9591;52.742;13.650;2023-11-21T07:33:26;9.53;;;4.60;;
18917;SDS011;9591;52.742;13.650;2023-11-21T07:36:15;12.63;;;4.70;;
18917;SDS011;9591;52.742;13.650;2023-11-21T07:39:03;12.30;;;4.87;;
18917;SDS011;9591;52.742;13.650;2023-11-21T07:41:53;12.03;;;4.50;;
18917;SDS011;9591;52.742;13.650;2023-11-21T07:44:43;9.97;;;4.70;;
18917;SDS011;9591;52.742;13.650;2023-11-21T07:47:36;11.50;;;5.50;;
18917;SDS011;9591;52.742;13.650;2023-11-21T07:50:30;10.07;;;4.73;;
18917;SDS011;9591;52.742;13.650;2023-11-21T07:53:20;16.37;;;6.03;;
18917;SDS011;9591;52.742;13.650;2023-11-21T07:56:08;16.87;;;6.70;;
18917;SDS011;9591;52.742;13.650;2023-11-21T07:58:56;17.40;;;7.60;;
18917;SDS011;9591;52.742;13.650;2023-11-21T08:01:44;25.57;;;7.80;;
18917;SDS011;9591;52.742;13.650;2023-11-21T08:04:37;15.17;;;5.90;;
18917;SDS011;9591;52.742;13.650;2023-11-21T08:07:24;24.63;;;7.13;;
18917;SDS011;9591;52.742;13.650;2023-11-21T08:10:11;25.23;;;7.40;;
18917;SDS011;9591;52.742;13.650;2023-11-21T08:13:02;18.90;;;6.40;;
18917;SDS011;9591;52.742;13.650;2023-11-21T08:15:49;24.10;;;7.67;;
18917;SDS011;9591;52.742;13.650;2023-11-21T08:18:39;20.73;;;7.63;;
18917;SDS011;9591;52.742;13.650;2023-11-21T08:21:28;27.43;;;8.27;;
18917;SDS011;9591;52.742;13.650;2023-11-21T08:24:17;26.10;;;7.67;;
18917;SDS011;9591;52.742;13.650;2023-11-21T08:27:13;19.90;;;7.17;;
18917;SDS011;9591;52.742;13.650;2023-11-21T08:30:05;18.53;;;6.20;;
18917;SDS011;9591;52.742;13.650;2023-11-21T08:33:03;9.27;;;3.73;;
18917;SDS011;9591;52.742;13.650;2023-11-21T08:39:37;6.90;;;3.23;;
18917;SDS011;9591;52.742;13.650;2023-11-21T08:42:24;3.70;;;2.63;;
18917;SDS011;9591;52.742;13.650;2023-11-21T08:45:13;6.73;;;3.07;;
18917;SDS011;9591;52.742;13.650;2023-11-21T08:48:03;6.07;;;2.67;;
18917;SDS011;9591;52.742;13.650;2023-11-21T08:50:53;4.70;;;3.20;;
18917;SDS011;9591;52.742;13.650;2023-11-21T08:53:40;5.37;;;2.47;;
18917;SDS011;9591;52.742;13.650;2023-11-21T08:56:33;4.10;;;2.77;;
18917;SDS011;9591;52.742;13.650;2023-11-21T08:59:20;2.93;;;2.67;;
18917;SDS011;9591;52.742;13.650;2023-11-21T09:02:09;3.13;;;2.40;;
18917;SDS011;9591;52.742;13.650;2023-11-21T09:05:01;3.30;;;2.30;;
18917;SDS011;9591;52.742;13.650;2023-11-21T09:11:03;2.87;;;2.30;;
18917;SDS011;9591;52.742;13.650;2023-11-21T09:13:57;4.43;;;2.83;;
18917;SDS011;9591;52.742;13.650;2023-11-21T09:16:46;4.80;;;2.93;;
18917;SDS011;9591;52.742;13.650;2023-11-21T09:19:35;2.53;;;1.93;;
18917;SDS011;9591;52.742;13.650;2023-11-21T09:22:22;2.70;;;2.40;;
18917;SDS011;9591;52.742;13.650;2023-11-21T09:25:10;2.07;;;1.97;;
18917;SDS011;9591;52.742;13.650;2023-11-21T09:27:57;2.60;;;2.23;;
18917;SDS011;9591;52.742;13.650;2023-11-21T09:34:08;2.67;;;2.47;;
18917;SDS011;9591;52.742;13.650;2023-11-21T09:36:57;2.83;;;2.60;;
18917;SDS011;9591;52.742;13.650;2023-11-21T09:39:48;3.03;;;2.57;;
18917;SDS011;9591;52.742;13.650;2023-11-21T09:42:38;3.50;;;2.40;;
18917;SDS011;9591;52.742;13.650;2023-11-21T09:45:35;3.17;;;2.37;;
18917;SDS011;9591;52.742;13.650;2023-11-21T09:48:27;2.30;;;2.10;;
18917;SDS011;9591;52.742;13.650;2023-11-21T09:51:31;4.70;;;2.57;;
18917;SDS011;9591;52.742;13.650;2023-11-21T09:54:26;4.17;;;2.77;;
18917;SDS011;9591;52.742;13.650;2023-11-21T09:57:20;2.40;;;2.20;;
18917;SDS011;9591;52.742;13.650;2023-11-21T10:00:09;2.90;;;2.20;;
18917;SDS011;9591;52.742;13.650;2023-11-21T10:03:03;8.87;;;2.70;;
18917;SDS011;9591;52.742;13.650;2023-11-21T10:05:56;4.43;;;3.20;;
18917;SDS011;9591;52.742;13.650;2023-11-21T10:08:49;3.93;;;2.93;;
18917;SDS011;9591;52.742;13.650;2023-11-21T10:11:42;5.93;;;2.77;;
18917;SDS011;9591;52.742;13.650;2023-11-21T10:14:32;3.60;;;2.80;;
18917;SDS011;9591;52.742;13.650;2023-11-21T10:17:22;3.90;;;2.87;;
18917;SDS011;9591;52.742;13.650;2023-11-21T10:20:19;3.00;;;2.70;;
18917;SDS011;9591;52.742;13.650;2023-11-21T10:23:12;2.80;;;2.53;;
18917;SDS011;9591;52.742;13.650;2023-11-21T10:26:01;3.90;;;2.43;;
18917;SDS011;9591;52.742;13.650;2023-11-21T10:29:05;7.43;;;2.50;;
18917;SDS011;9591;52.742;13.650;2023-11-21T10:31:52;6.00;;;2.77;;
18917;SDS011;9591;52.742;13.650;2023-11-21T10:34:56;4.60;;;2.70;;
18917;SDS011;9591;52.742;13.650;2023-11-21T10:37:45;3.50;;;2.80;;
18917;SDS011;9591;52.742;13.650;2023-11-21T10:40:51;2.70;;;2.50;;
18917;SDS011;9591;52.742;13.650;2023-11-21T10:43:41;3.53;;;2.60;;
18917;SDS011;9591;52.742;13.650;2023-11-21T10:46:33;6.17;;;2.80;;
18917;SDS011;9591;52.742;13.650;2023-11-21T10:49:23;2.60;;;2.40;;
18917;SDS011;9591;52.742;13.650;2023-11-21T10:52:18;3.40;;;3.00;;
18917;SDS011;9591;52.742;13.650;2023-11-21T10:55:16;3.87;;;3.17;;
18917;SDS011;9591;52.742;13.650;2023-11-21T10:58:08;3.60;;;3.03;;
18917;SDS011;9591;52.742;13.650;2023-11-21T11:00:59;4.17;;;2.83;;
18917;SDS011;9591;52.742;13.650;2023-11-21T11:03:50;3.83;;;3.07;;
18917;SDS011;9591;52.742;13.650;2023-11-21T11:06:44;3.70;;;2.73;;
18917;SDS011;9591;52.742;13.650;2023-11-21T11:09:39;2.70;;;2.50;;
18917;SDS011;9591;52.742;13.650;2023-11-21T11:12:30;3.33;;;2.83;;
18917;SDS011;9591;52.742;13.650;2023-11-21T11:15:20;3.40;;;2.60;;
18917;SDS011;9591;52.742;13.650;2023-11-21T11:18:10;3.47;;;2.47;;
18917;SDS011;9591;52.742;13.650;2023-11-21T11:21:07;4.13;;;2.37;;
18917;SDS011;9591;52.742;13.650;2023-11-21T11:24:23;3.17;;;2.87;;
18917;SDS011;9591;52.742;13.650;2023-11-21T11:27:30;5.33;;;2.90;;
18917;SDS011;9591;52.742;13.650;2023-11-21T11:33:52;3.67;;;2.60;;
18917;SDS011;9591;52.742;13.650;2023-11-21T11:36:48;2.97;;;2.77;;
18917;SDS011;9591;52.742;13.650;2023-11-21T11:39:42;2.60;;;2.40;;
18917;SDS011;9591;52.742;13.650;2023-11-21T11:42:35;4.07;;;2.80;;
18917;SDS011;9591;52.742;13.650;2023-11-21T11:45:23;3.27;;;2.97;;
18917;SDS011;9591;52.742;13.650;2023-11-21T11:48:29;4.30;;;3.40;;
18917;SDS011;9591;52.742;13.650;2023-11-21T11:51:26;5.53;;;3.40;;
18917;SDS011;9591;52.742;13.650;2023-11-21T11:54:15;4.57;;;3.40;;
18917;SDS011;9591;52.742;13.650;2023-11-21T11:57:04;5.67;;;3.77;;
18917;SDS011;9591;52.742;13.650;2023-11-21T12:03:53;5.80;;;3.63;;
18917;SDS011;9591;52.742;13.650;2023-11-21T12:07:16;5.13;;;3.80;;
18917;SDS011;9591;52.742;13.650;2023-11-21T12:10:03;4.80;;;3.53;;
18917;SDS011;9591;52.742;13.650;2023-11-21T12:13:00;5.93;;;3.90;;
18917;SDS011;9591;52.742;13.650;2023-11-21T12:15:52;6.03;;;3.57;;
18917;SDS011;9591;52.742;13.650;2023-11-21T12:18:54;6.03;;;3.43;;
18917;SDS011;9591;52.742;13.650;2023-11-21T12:21:43;5.47;;;4.47;;
18917;SDS011;9591;52.742;13.650;2023-11-21T12:27:52;5.77;;;4.23;;
18917;SDS011;9591;52.742;13.650;2023-11-21T12:30:39;6.47;;;3.97;;
18917;SDS011;9591;52.742;13.650;2023-11-21T12:33:30;5.53;;;3.27;;
18917;SDS011;9591;52.742;13.650;2023-11-21T12:36:21;4.67;;;3.50;;
18917;SDS011;9591;52.742;13.650;2023-11-21T12:39:08;6.50;;;3.67;;
18917;SDS011;9591;52.742;13.650;2023-11-21T12:41:58;7.40;;;4.37;;
18917;SDS011;9591;52.742;13.650;2023-11-21T12:44:48;8.77;;;3.70;;
18917;SDS011;9591;52.742;13.650;2023-11-21T12:47:35;6.93;;;4.53;;
18917;SDS011;9591;52.742;13.650;2023-11-21T12:50:27;6.80;;;3.80;;
18917;SDS011;9591;52.742;13.650;2023-11-21T12:53:21;7.57;;;4.73;;
18917;SDS011;9591;52.742;13.650;2023-11-21T12:56:25;6.33;;;4.67;;
18917;SDS011;9591;52.742;13.650;2023-11-21T12:59:14;9.07;;;5.00;;
18917;SDS011;9591;52.742;13.650;2023-11-21T13:02:05;10.17;;;4.77;;
18917;SDS011;9591;52.742;13.650;2023-11-21T13:04:54;9.53;;;5.70;;
18917;SDS011;9591;52.742;13.650;2023-11-21T13:07:44;12.47;;;6.20;;
18917;SDS011;9591;52.742;13.650;2023-11-21T13:10:38;11.80;;;6.30;;
18917;SDS011;9591;52.742;13.650;2023-11-21T13:13:29;13.23;;;7.20;;
18917;SDS011;9591;52.742;13.650;2023-11-21T13:16:21;16.47;;;7.63;;
18917;SDS011;9591;52.742;13.650;2023-11-21T13:19:09;17.43;;;7.60;;
18917;SDS011;9591;52.742;13.650;2023-11-21T13:21:59;18.20;;;8.17;;
18917;SDS011;9591;52.742;13.650;2023-11-21T13:24:53;20.07;;;8.40;;
18917;SDS011;9591;52.742;13.650;2023-11-21T13:27:42;16.77;;;8.20;;
18917;SDS011;9591;52.742;13.650;2023-11-21T13:30:30;14.90;;;7.87;;
18917;SDS011;9591;52.742;13.650;2023-11-21T13:33:20;16.07;;;8.37;;
18917;SDS011;9591;52.742;13.650;2023-11-21T13:36:17;17.97;;;8.00;;
18917;SDS011;9591;52.742;13.650;2023-11-21T13:39:08;19.90;;;9.50;;
18917;SDS011;9591;52.742;13.650;2023-11-21T13:42:03;20.80;;;9.40;;
18917;SDS011;9591;52.742;13.650;2023-11-21T13:45:00;19.03;;;10.53;;
18917;SDS011;9591;52.742;13.650;2023-11-21T13:47:47;15.33;;;8.53;;
18917;SDS011;9591;52.742;13.650;2023-11-21T13:50:36;24.70;;;10.80;;
18917;SDS011;9591;52.742;13.650;2023-11-21T13:53:27;18.83;;;9.37;;
18917;SDS011;9591;52.742;13.650;2023-11-21T13:56:16;22.80;;;10.23;;
18917;SDS011;9591;52.742;13.650;2023-11-21T13:59:10;23.27;;;10.93;;
18917;SDS011;9591;52.742;13.650;2023-11-21T14:02:06;22.23;;;10.57;;
18917;SDS011;9591;52.742;13.650;2023-11-21T14:05:04;17.30;;;9.10;;
18917;SDS011;9591;52.742;13.650;2023-11-21T14:07:57;17.87;;;8.97;;
18917;SDS011;9591;52.742;13.650;2023-11-21T14:10:48;19.83;;;9.10;;
18917;SDS011;9591;52.742;13.650;2023-11-21T14:13:44;18.13;;;8.30;;
18917;SDS011;9591;52.742;13.650;2023-11-21T14:16:34;17.37;;;8.00;;
18917;SDS011;9591;52.742;13.650;2023-11-21T14:19:23;18.40;;;8.90;;
18917;SDS011;9591;52.742;13.650;2023-11-21T14:22:13;13.87;;;7.67;;
18917;SDS011;9591;52.742;13.650;2023-11-21T14:25:06;12.77;;;6.87;;
18917;SDS011;9591;52.742;13.650;2023-11-21T14:27:57;15.20;;;8.40;;
18917;SDS011;9591;52.742;13.650;2023-11-21T14:30:47;14.50;;;7.70;;
18917;SDS011;9591;52.742;13.650;2023-11-21T14:33:35;17.70;;;8.23;;
18917;SDS011;9591;52.742;13.650;2023-11-21T14:36:26;17.17;;;8.77;;
18917;SDS011;9591;52.742;13.650;2023-11-21T14:39:13;13.87;;;7.80;;
18917;SDS011;9591;52.742;13.650;2023-11-21T14:42:09;19.83;;;8.53;;
18917;SDS011;9591;52.742;13.650;2023-11-21T14:45:00;17.40;;;9.27;;
18917;SDS011;9591;52.742;13.650;2023-11-21T14:51:26;18.97;;;8.30;;
18917;SDS011;9591;52.742;13.650;2023-11-21T14:54:39;17.63;;;9.33;;
18917;SDS011;9591;52.742;13.650;2023-11-21T14:57:28;25.03;;;9.30;;
18917;SDS011;9591;52.742;13.650;2023-11-21T15:00:16;17.07;;;8.27;;
18917;SDS011;9591;52.742;13.650;2023-11-21T15:03:11;15.33;;;9.30;;
18917;SDS011;9591;52.742;13.650;2023-11-21T15:06:20;14.60;;;7.27;;
18917;SDS011;9591;52.742;13.650;2023-11-21T15:09:13;19.03;;;8.23;;
18917;SDS011;9591;52.742;13.650;2023-11-21T15:12:27;18.10;;;8.50;;
18917;SDS011;9591;52.742;13.650;2023-11-21T15:15:19;16.73;;;9.10;;
18917;SDS011;9591;52.742;13.650;2023-11-21T15:18:06;15.40;;;8.33;;
18917;SDS011;9591;52.742;13.650;2023-11-21T15:21:00;17.17;;;8.00;;
18917;SDS011;9591;52.742;13.650;2023-11-21T15:23:48;17.97;;;7.27;;
18917;SDS011;9591;52.742;13.650;2023-11-21T15:26:37;15.63;;;6.97;;
18917;SDS011;9591;52.742;13.650;2023-11-21T15:29:25;15.50;;;8.33;;
18917;SDS011;9591;52.742;13.650;2023-11-21T15:32:22;17.53;;;8.40;;
18917;SDS011;9591;52.742;13.650;2023-11-21T15:35:10;14.70;;;7.23;;
18917;SDS011;9591;52.742;13.650;2023-11-21T15:38:02;15.47;;;7.70;;
18917;SDS011;9591;52.742;13.650;2023-11-21T15:40:49;16.60;;;7.60;;
18917;SDS011;9591;52.742;13.650;2023-11-21T15:43:39;15.60;;;7.83;;
18917;SDS011;9591;52.742;13.650;2023-11-21T15:46:30;15.83;;;7.80;;
18917;SDS011;9591;52.742;13.650;2023-11-21T15:49:23;15.03;;;7.87;;
18917;SDS011;9591;52.742;13.650;2023-11-21T15:52:21;15.90;;;8.23;;
18917;SDS011;9591;52.742;13.650;2023-11-21T15:55:46;15.73;;;7.93;;
18917;SDS011;9591;52.742;13.650;2023-11-21T15:58:40;14.80;;;7.87;;
18917;SDS011;9591;52.742;13.650;2023-11-21T16:01:38;13.13;;;7.10;;
18917;SDS011;9591;52.742;13.650;2023-11-21T16:04:34;11.33;;;6.10;;
18917;SDS011;9591;52.742;13.650;2023-11-21T16:07:43;9.97;;;6.13;;
18917;SDS011;9591;52.742;13.650;2023-11-21T16:10:40;9.80;;;5.33;;
18917;SDS011;9591;52.742;13.650;2023-11-21T16:13:36;15.97;;;7.33;;
18917;SDS011;9591;52.742;13.650;2023-11-21T16:16:24;18.43;;;7.40;;
18917;SDS011;9591;52.742;13.650;2023-11-21T16:19:14;8.87;;;6.33;;
18917;SDS011;9591;52.742;13.650;2023-11-21T16:22:10;11.77;;;7.00;;
18917;SDS011;9591;52.742;13.650;2023-11-21T16:25:00;13.17;;;6.83;;
18917;SDS011;9591;52.742;13.650;2023-11-21T16:27:49;13.40;;;6.63;;
18917;SDS011;9591;52.742;13.650;2023-11-21T16:30:41;11.57;;;7.17;;
18917;SDS011;9591;52.742;13.650;2023-11-21T16:33:28;11.40;;;6.00;;
18917;SDS011;9591;52.742;13.650;2023-11-21T16:36:15;13.67;;;6.37;;
18917;SDS011;9591;52.742;13.650;2023-11-21T16:39:05;10.93;;;6.27;;
18917;SDS011;9591;52.742;13.650;2023-11-21T16:41:55;14.77;;;7.13;;
18917;SDS011;9591;52.742;13.650;2023-11-21T16:44:43;11.70;;;7.00;;
18917;SDS011;9591;52.742;13.650;2023-11-21T16:47:34;12.33;;;6.77;;
18917;SDS011;9591;52.742;13.650;2023-11-21T16:50:25;12.90;;;6.73;;
18917;SDS011;9591;52.742;13.650;2023-11-21T16:53:19;12.17;;;6.40;;
18917;SDS011;9591;52.742;13.650;2023-11-21T16:56:08;13.30;;;6.40;;
18917;SDS011;9591;52.742;13.650;2023-11-21T16:58:56;12.10;;;6.60;;
18917;SDS011;9591;52.742;13.650;2023-11-21T17:01:44;14.40;;;6.93;;
18917;SDS011;9591;52.742;13.650;2023-11-21T17:04:35;10.93;;;6.00;;
18917;SDS011;9591;52.742;13.650;2023-11-21T17:07:27;12.93;;;6.40;;
18917;SDS011;9591;52.742;13.650;2023-11-21T17:10:23;14.13;;;6.67;;
18917;SDS011;9591;52.742;13.650;2023-11-21T17:13:13;12.53;;;6.40;;
18917;SDS011;9591;52.742;13.650;2023-11-21T17:16:03;10.87;;;6.70;;
18917;SDS011;9591;52.742;13.650;2023-11-21T17:18:50;13.87;;;6.90;;
18917;SDS011;9591;52.742;13.650;2023-11-21T17:21:44;12.30;;;6.80;;
18917;SDS011;9591;52.742;13.650;2023-11-21T17:24:34;12.40;;;6.77;;
18917;SDS011;9591;52.742;13.650;2023-11-21T17:27:24;10.47;;;6.47;;
18917;SDS011;9591;52.742;13.650;2023-11-21T17:30:15;13.57;;;7.03;;
18917;SDS011;9591;52.742;13.650;2023-11-21T17:33:02;16.67;;;6.87;;
18917;SDS011;9591;52.742;13.650;2023-11-21T17:35:51;11.37;;;6.47;;
18917;SDS011;9591;52.742;13.650;2023-11-21T17:38:45;14.97;;;7.33;;
18917;SDS011;9591;52.742;13.650;2023-11-21T17:41:33;14.43;;;7.10;;
18917;SDS011;9591;52.742;13.650;2023-11-21T17:44:25;14.70;;;6.97;;
18917;SDS011;9591;52.742;13.650;2023-11-21T17:47:13;16.07;;;7.47;;
18917;SDS011;9591;52.742;13.650;2023-11-21T17:50:05;13.07;;;6.57;;